sensor_id;sensor_type;location;lat;lon;timestamp;pressure;altitude;pressure_sealevel;temperature
75469;BMP280;64050;50.634;3.062;2022-10-16T09:25:48;101364.53;;;23.49
75469;BMP280;64050;50.634;3.062;2022-10-16T09:28:15;101369.97;;;23.54
75469;BMP280;64050;50.634;3.062;2022-10-16T09:30:43;101370.22;;;23.56
75469;BMP280;64050;50.634;3.062;2022-10-16T09:33:10;101388.00;;;23.52
75469;BMP280;64050;50.634;3.062;2022-10-16T09:35:39;101383.53;;;23.49
75469;BMP280;64050;50.634;3.062;2022-10-16T09:38:08;101381.56;;;23.49
75469;BMP280;64050;50.634;3.062;2022-10-16T09:40:35;101383.31;;;23.52
75469;BMP280;64050;50.634;3.062;2022-10-16T09:45:03;101371.53;;;23.77
75469;BMP280;64050;50.634;3.062;2022-10-16T09:49:05;101370.78;;;23.88
75469;BMP280;64050;50.634;3.062;2022-10-16T09:51:47;101366.31;;;23.85
75469;BMP280;64050;50.634;3.062;2022-10-16T09:58:50;101374.97;;;23.89
75469;BMP280;64050;50.634;3.062;2022-10-16T10:03:15;101373.47;;;23.93
75469;BMP280;64050;50.634;3.062;2022-10-16T10:06:22;101380.88;;;23.82
75469;BMP280;64050;50.634;3.062;2022-10-16T10:08:56;101377.41;;;23.76
75469;BMP280;64050;50.634;3.062;2022-10-16T10:14:23;101386.53;;;23.67
75469;BMP280;64050;50.634;3.062;2022-10-16T10:47:17;101392.41;;;23.38
75469;BMP280;64050;50.634;3.062;2022-10-16T12:54:37;101366.59;;;23.01
75469;BMP280;64050;50.634;3.062;2022-10-16T13:08:29;101361.06;;;23.42
75469;BMP280;64050;50.634;3.062;2022-10-16T13:11:54;101357.63;;;23.48
75469;BMP280;64050;50.634;3.062;2022-10-16T13:17:40;101360.63;;;23.55
75469;BMP280;64050;50.634;3.062;2022-10-16T13:20:33;101352.47;;;23.55
75469;BMP280;64050;50.634;3.062;2022-10-16T13:23:17;101354.19;;;23.58
75469;BMP280;64050;50.634;3.062;2022-10-16T13:26:35;101346.06;;;23.64
75469;BMP280;64050;50.634;3.062;2022-10-16T13:29:14;101344.09;;;23.70
75469;BMP280;64050;50.634;3.062;2022-10-16T13:31:41;101344.81;;;23.76
75469;BMP280;64050;50.634;3.062;2022-10-16T13:34:11;101343.38;;;23.80
75469;BMP280;64050;50.634;3.062;2022-10-16T13:36:44;101341.41;;;23.81
75469;BMP280;64050;50.634;3.062;2022-10-16T13:42:09;101352.75;;;23.79
75469;BMP280;64050;50.634;3.062;2022-10-16T13:44:42;101337.94;;;23.80
75469;BMP280;64050;50.634;3.062;2022-10-16T13:47:33;101352.50;;;23.83
75469;BMP280;64050;50.634;3.062;2022-10-16T13:50:19;101361.38;;;23.83
75469;BMP280;64050;50.634;3.062;2022-10-16T13:52:44;101371.50;;;23.83
75469;BMP280;64050;50.634;3.062;2022-10-16T13:55:11;101369.03;;;23.85
75469;BMP280;64050;50.634;3.062;2022-10-16T13:57:42;101367.03;;;23.85
75469;BMP280;64050;50.634;3.062;2022-10-16T14:03:28;101342.16;;;23.87
75469;BMP280;64050;50.634;3.062;2022-10-16T14:05:48;101348.78;;;23.86
75469;BMP280;64050;50.634;3.062;2022-10-16T14:08:17;101352.75;;;23.85
75469;BMP280;64050;50.634;3.062;2022-10-16T14:10:46;101356.44;;;23.82
75469;BMP280;64050;50.634;3.062;2022-10-16T14:13:20;101354.97;;;23.81
75469;BMP280;64050;50.634;3.062;2022-10-16T14:16:15;101350.03;;;23.85
75469;BMP280;64050;50.634;3.062;2022-10-16T14:18:47;101350.75;;;23.85
75469;BMP280;64050;50.634;3.062;2022-10-16T14:21:22;101356.94;;;23.86
75469;BMP280;64050;50.634;3.062;2022-10-16T14:23:49;101357.44;;;23.84
75469;BMP280;64050;50.634;3.062;2022-10-16T14:26:16;101350.03;;;23.85
75469;BMP280;64050;50.634;3.062;2022-10-16T14:28:46;101355.44;;;23.85
75469;BMP280;64050;50.634;3.062;2022-10-16T14:31:24;101353.72;;;23.87
75469;BMP280;64050;50.634;3.062;2022-10-16T14:33:52;101352.25;;;23.86
75469;BMP280;64050;50.634;3.062;2022-10-16T14:36:17;101365.81;;;23.86
75469;BMP280;64050;50.634;3.062;2022-10-16T14:41:48;101358.44;;;23.87
75469;BMP280;64050;50.634;3.062;2022-10-16T14:44:19;101348.78;;;23.86
75469;BMP280;64050;50.634;3.062;2022-10-16T14:46:53;101346.81;;;23.86
75469;BMP280;64050;50.634;3.062;2022-10-16T14:49:19;101336.72;;;23.87
75469;BMP280;64050;50.634;3.062;2022-10-16T14:51:48;101338.91;;;23.88
75469;BMP280;64050;50.634;3.062;2022-10-16T14:54:15;101339.44;;;23.87
75469;BMP280;64050;50.634;3.062;2022-10-16T14:56:53;101352.25;;;23.86
75469;BMP280;64050;50.634;3.062;2022-10-16T14:59:27;101346.31;;;23.82
75469;BMP280;64050;50.634;3.062;2022-10-16T15:01:58;101344.34;;;23.83
75469;BMP280;64050;50.634;3.062;2022-10-16T15:04:24;101338.69;;;23.86
75469;BMP280;64050;50.634;3.062;2022-10-16T15:06:49;101345.09;;;23.89
75469;BMP280;64050;50.634;3.062;2022-10-16T15:09:15;101332.50;;;23.86
75469;BMP280;64050;50.634;3.062;2022-10-16T15:11:41;101331.03;;;23.79
75469;BMP280;64050;50.634;3.062;2022-10-16T15:14:13;101338.91;;;23.72
75469;BMP280;64050;50.634;3.062;2022-10-16T15:16:39;101335.47;;;23.71
75469;BMP280;64050;50.634;3.062;2022-10-16T15:19:04;101329.53;;;23.67
75469;BMP280;64050;50.634;3.062;2022-10-16T15:21:31;101331.25;;;23.65
75469;BMP280;64050;50.634;3.062;2022-10-16T15:23:58;101311.50;;;23.59
75469;BMP280;64050;50.634;3.062;2022-10-16T15:26:25;101309.06;;;23.55
75469;BMP280;64050;50.634;3.062;2022-10-16T15:28:53;101311.75;;;23.61
75469;BMP280;64050;50.634;3.062;2022-10-16T15:31:19;101300.91;;;23.61
75469;BMP280;64050;50.634;3.062;2022-10-16T15:33:49;101296.97;;;23.56
75469;BMP280;64050;50.634;3.062;2022-10-16T15:36:26;101303.59;;;23.50
75469;BMP280;64050;50.634;3.062;2022-10-16T15:39:18;101294.72;;;23.44
75469;BMP280;64050;50.634;3.062;2022-10-16T15:41:45;101288.78;;;23.40
75469;BMP280;64050;50.634;3.062;2022-10-16T15:44:19;101289.56;;;23.35
75469;BMP280;64050;50.634;3.062;2022-10-16T15:46:48;101298.91;;;23.34
75469;BMP280;64050;50.634;3.062;2022-10-16T15:49:13;101316.19;;;23.31
75469;BMP280;64050;50.634;3.062;2022-10-16T15:51:40;101311.47;;;23.26
75469;BMP280;64050;50.634;3.062;2022-10-16T15:54:07;101324.78;;;23.24
75469;BMP280;64050;50.634;3.062;2022-10-16T15:56:33;101335.34;;;23.22
75469;BMP280;64050;50.634;3.062;2022-10-16T15:59:01;101326.25;;;23.19
75469;BMP280;64050;50.634;3.062;2022-10-16T16:01:28;101319.81;;;23.17
75469;BMP280;64050;50.634;3.062;2022-10-16T16:03:57;101320.78;;;23.13
75469;BMP280;64050;50.634;3.062;2022-10-16T16:06:23;101335.59;;;23.13
75469;BMP280;64050;50.634;3.062;2022-10-16T16:08:51;101339.28;;;23.10
75469;BMP280;64050;50.634;3.062;2022-10-16T16:11:18;101339.03;;;23.08
75469;BMP280;64050;50.634;3.062;2022-10-16T16:13:44;101349.63;;;23.06
75469;BMP280;64050;50.634;3.062;2022-10-16T16:16:11;101354.03;;;23.03
75469;BMP280;64050;50.634;3.062;2022-10-16T16:18:40;101365.41;;;23.02
75469;BMP280;64050;50.634;3.062;2022-10-16T16:21:07;101372.78;;;23.01
75469;BMP280;64050;50.634;3.062;2022-10-16T16:23:34;101366.59;;;23.01
75469;BMP280;64050;50.634;3.062;2022-10-16T16:26:14;101356.25;;;22.99
75469;BMP280;64050;50.634;3.062;2022-10-16T16:28:52;101349.81;;;22.97
75469;BMP280;64050;50.634;3.062;2022-10-16T16:31:20;101350.28;;;22.95
75469;BMP280;64050;50.634;3.062;2022-10-16T16:33:48;101340.72;;;22.94
75469;BMP280;64050;50.634;3.062;2022-10-16T16:36:13;101330.31;;;22.92
75469;BMP280;64050;50.634;3.062;2022-10-16T16:38:39;101332.31;;;22.92
75469;BMP280;64050;50.634;3.062;2022-10-16T16:41:15;101340.19;;;22.90
75469;BMP280;64050;50.634;3.062;2022-10-16T16:43:44;101349.53;;;22.89
75469;BMP280;64050;50.634;3.062;2022-10-16T16:46:10;101341.88;;;22.88
75469;BMP280;64050;50.634;3.062;2022-10-16T16:48:36;101338.44;;;22.87
75469;BMP280;64050;50.634;3.062;2022-10-16T16:51:04;101336.22;;;22.86
75469;BMP280;64050;50.634;3.062;2022-10-16T16:53:44;101334.72;;;22.84
75469;BMP280;64050;50.634;3.062;2022-10-16T16:56:13;101329.28;;;22.84
75469;BMP280;64050;50.634;3.062;2022-10-16T16:58:39;101349.50;;;22.83
75469;BMP280;64050;50.634;3.062;2022-10-16T17:01:05;101342.41;;;22.92
75469;BMP280;64050;50.634;3.062;2022-10-16T17:03:34;101360.44;;;23.00
75469;BMP280;64050;50.634;3.062;2022-10-16T17:06:01;101373.03;;;23.03
75469;BMP280;64050;50.634;3.062;2022-10-16T17:08:30;101369.81;;;23.05
75469;BMP280;64050;50.634;3.062;2022-10-16T17:10:57;101385.66;;;23.17
75469;BMP280;64050;50.634;3.062;2022-10-16T17:13:33;101394.56;;;23.29
75469;BMP280;64050;50.634;3.062;2022-10-16T17:16:03;101405.19;;;23.32
75469;BMP280;64050;50.634;3.062;2022-10-16T17:18:31;101404.94;;;23.36
75469;BMP280;64050;50.634;3.062;2022-10-16T17:21:04;101379.81;;;23.41
75469;BMP280;64050;50.634;3.062;2022-10-16T17:23:33;101376.88;;;23.44
75469;BMP280;64050;50.634;3.062;2022-10-16T17:26:07;101375.63;;;23.40
75469;BMP280;64050;50.634;3.062;2022-10-16T17:28:39;101379.31;;;23.37
75469;BMP280;64050;50.634;3.062;2022-10-16T17:31:11;101399.03;;;23.37
75469;BMP280;64050;50.634;3.062;2022-10-16T17:33:40;101403.25;;;23.38
75469;BMP280;64050;50.634;3.062;2022-10-16T17:36:06;101405.22;;;23.38
75469;BMP280;64050;50.634;3.062;2022-10-16T17:38:33;101418.78;;;23.38
75469;BMP280;64050;50.634;3.062;2022-10-16T17:41:22;101418.50;;;23.36
75469;BMP280;64050;50.634;3.062;2022-10-16T17:43:48;101399.28;;;23.34
75469;BMP280;64050;50.634;3.062;2022-10-16T17:46:14;101404.94;;;23.30
75469;BMP280;64050;50.634;3.062;2022-10-16T17:48:48;101390.34;;;23.27
75469;BMP280;64050;50.634;3.062;2022-10-16T17:51:18;101384.69;;;23.26
75469;BMP280;64050;50.634;3.062;2022-10-16T17:53:47;101393.84;;;23.34
